Hovedside
METAR-TAF:

METAR-TAF

Lufthavner :

Mandalay, Burma

breddegrad: 21-59N, lengdegrad: 096-06E, høyde over havet: 74 m

Gjeldene værobservasjon

Denne rapporten ble laget for 30 minutter siden, klokken 01:30 UTC
Vind 2 kt fra Nord
Temperatur 14°C
Luftfuktighet 88%
Trykk 1018 hPa
Sikt: 5000 m
Få skyer i en høyde av 2000 ft
dis

METAR: VYMD 140130Z 36002KT 5000 BR FEW020 14/12 Q1018

Tid: 08:30 (02:00 UTC)

Varsel

Denne rapporten ble laget for 3 timer og 0 minutter siden, klokken 23:00 UTC
Varsel gyldig fra 14. klokken 00 UTC til 14. klokken 24 UTC
Vind 3 kt fra Nord
Sikt: 6000 m
Få skyer i en høyde av 2000 ft
Blir
fra 14. klokken 00 UTC til 14. klokken 02 UTC
Vind 2 kt fra Nord-nordvest
Sikt: 4000 m
dis
Midlertidig
fra 14. klokken 02 UTC til 14. klokken 06 UTC
Vind 5 kt fra Nord
Sikt: 6000 m
Få skyer i en høyde av 2000 ft

TAF: VYMD 132300Z 1400/1424 36003KT 6000 FEW020 BECMG 1400/1402 34002KT 4000 BR TEMPO 1402/1406 36005KT 6000 FEW020

Værobservasjoner og værvarsel for over 4000 flyplasser (METAR- og TAF-rapporter).

Tilgjengelige stasjoner er representert av de røde og gule prikkene på kartet.

Hold musepekeren over prikken for å se navnet på stasjonen.

Klikk så for å se værobservasjoner og -varsler.

For å forandre kartet kan du klikke på den grønne knappen med svart kryss for å zoome inn, på den grønne knappen med strek for å zoome ut, eller på de grønne pilene for å se tilstøtende kart.


METAR-TAF: